24 mei 2022

Tijd Code Weer Temp. Zicht Wolken Wind METAR/SPECI
07:00
V
24 °C 10 km+ - 320°   320° 3 kt METAR AYPY 232100Z 32003KT 9999 FUHZ FEW000 FEW040 24/24 Q1010 RMK
06:00
V
24 °C 10 km+ - 330°   330° 5 kt METAR AYPY 232000Z 33005KT 9999 HZ FEW020 SCT080 24/24 Q1010
05:00
V
24 °C 10 km+ - 020°   020° 5 kt METAR AYPY 231900Z 02005KT 9999 FEW030 24/24 Q1009=
04:00
V
24 °C 10 km+ - Var   Var 3 kt METAR AYPY 231800Z VRB03KT 9999 FEW040 24/24 Q1009
03:00
V
25 °C 10 km+ - Var   Var 3 kt METAR AYPY 231700Z VRB03KT 9999 FEW030 25/24 Q1009
02:00
V
25 °C 10 km+ - Var   Var 3 kt METAR AYPY 231600Z VRB03KT 9999 FEW050 25/24 Q1009
01:00
V
25 °C 10 km+ - 160°   160° 5 kt METAR AYPY 231500Z 16005KT 9999 FEW050 25/24 Q1010
00:00
V
26 °C 10 km+ - 150°   150° 5 kt METAR AYPY 231400Z 15005KT 9999 FEW050 26/24 Q1011

23 mei 2022

Tijd Code Weer Temp. Zicht Wolken Wind METAR/SPECI
23:00
V
27 °C 10 km+ - 170°   170° 10 kt METAR AYPY 231300Z 17010KT 9999 SCT050 27/25 Q1011
22:00
V
28 °C 10 km+ - 160°   160° 15 kt METAR AYPY 231200Z 16015KT 9999 SCT050 28/25 Q1011
21:00
V
28 °C 10 km+ - 150°   150° 15 kt METAR AYPY 231100Z 15015KT 9999 SCT050 28/25 Q1011
20:00
V
28 °C 10 km+ - 150°   150° 20 kt METAR AYPY 231000Z 15020KT 9999 SCT050 28/25 Q1010
19:00
V
28 °C 10 km+ - 160°   160° 20 kt METAR AYPY 230900Z 16020KT 9999 SCT030 SCT050 28/25 Q1009
18:00
V
29 °C 10 km+ - 160°   160° 20 kt METAR AYPY 230800Z 16020KT 9999 HZ SCT030 29/25 Q1009
17:00
V
30 °C 10 km+ - 160°   160° 12 kt METAR AYPY 230700Z 16012KT 9999 HZ FEW020 SCT030 30/26 Q1008
16:00
V
31 °C 10 km+ - 160°   160° 15 kt METAR AYPY 230600Z 16015KT 9999 HZ FEW015 SCT030 31/26 Q1007
15:00
V
31 °C 10 km+ - 150°   150° 13 kt METAR AYPY 230500Z 15013KT 9999 FEW025 SCT035 31/26 Q1007 RMK/ CB TO THE N AND E
14:00
V
32 °C 10 km+ - 160°   160° 14 kt METAR AYPY 230400Z 16014KT 9999 SCT030 32/25 Q1008 RMK/ CB TO THE N AND E
13:00
V
32 °C 10 km+ - 160°   160° 10 kt METAR AYPY 230300Z 16010KT 9999 SCT030 32/26 Q1008
12:00
V
32 °C 10 km+ - 140°   140° 5 10 kt METAR AYPY 230200Z 14005G10KT 9999 HZ SCT030 SCT040 32/24 Q1009
11:00
V
31 °C 10 km+ - 170°   170° 5 10 kt METAR AYPY 230100Z 17005G10KT 9999 HZ SCT030 31/24 Q1010=
10:00
V
30 °C 10 km+ - Var   Var 3 kt METAR AYPY 230000Z VRB03KT 9999 SCT025 SCT040 30/24 Q1011
09:00
V
30 °C 10 km+ - 130°   130° 10 kt METAR AYPY 222300Z 13010KT 9999 SCT025 30/25 Q1011
08:00
V
28 °C 10 km+ - 130°   130° 10 kt METAR AYPY 222200Z 13010KT 9999 FEW040 28/24 Q1010
07:00
V
26 °C 10 km+ - Var   Var 3 kt METAR AYPY 222100Z VRB03KT 9999 FEW030 26/24 Q1010
06:00
V
26 °C 10 km+ - 110°   110° 5 kt METAR AYPY 222000Z 11005KT 9999 FEW030 26/24 Q1008 RMK/LITG OBS TO THE N
05:00
V
26 °C 10 km+ - Var   Var 3 kt METAR AYPY 221900Z VRB03KT 9999 SCT050 26/25 Q1008
03:00
V
27 °C 10 km+ - 140°   140° 15 kt METAR AYPY 221700Z 14015KT 9999 FEW015 SCT060 27/25 Q1008
02:00
V
27 °C 10 km+ - 140°   140° 15 kt METAR AYPY 221600Z 14015KT 9999 SCT070 27/24 Q1008
00:00
V
28 °C 10 km+ - 140°   140° 10 kt METAR AYPY 221400Z 14010KT 9999 SCT050 28/25 Q1009

22 mei 2022

Tijd Code Weer Temp. Zicht Wolken Wind METAR/SPECI
23:00
V
27 °C 10 km+ - 160°   160° 10 kt METAR AYPY 221300Z 16010KT 9999 SCT050 27/25 Q1009
22:00
V
28 °C 10 km+ - 160°   160° 15 kt METAR AYPY 221200Z 16015KT 9999 SCT050 28/25 Q1009
21:00
V
28 °C 10 km+ - 150°   150° 5 kt METAR AYPY 221100Z 15005KT 9999 SCT050 28/25 Q1009=
20:00
V
28 °C 10 km+ - 150°   150° 15 kt METAR AYPY 221000Z 15015KT 9999 FEW020 SCT050 28/25 Q1009
19:00
V
28 °C 10 km+ - 160°   160° 15 kt METAR AYPY 220900Z 16015KT 9999 FEW025 SCT050 28/26 Q1008
18:00
V
29 °C 10 km+ - 150°   150° 10 20 kt METAR AYPY 220800Z 15010G20KT 9999 FEW025 SCT050 29/25 Q1007
17:00
V
30 °C 10 km+ - 150°   150° 10 20 kt METAR AYPY 220700Z 15010G20KT 9999 FUHZ SCT030 SCT050 30/25 Q1006
16:00
V
31 °C 10 km+ - 160°   160° 10 20 kt METAR AYPY 220600Z 16010G20KT 9999 FUHZ SCT030 31/25 Q1006
15:00
V
32 °C 10 km+ - 160°   160° 10 20 kt METAR AYPY 220500Z 16010G20KT 9999 HZ SCT030 32/25 Q1006
14:00
V
32 °C 10 km+ - 160°   160° 15 kt METAR AYPY 220400Z 16015KT 9999 HZ SCT030 32/25 Q1006=
13:00
V
32 °C 10 km+ - 160°   160° 15 kt METAR AYPY 220300Z 16015KT 9999 HZ SCT030 32/25 Q1007
12:00
V
32 °C 10 km+ - 180°   180° 13 kt METAR AYPY 220200Z 18013KT 9999 HZ SCT030 32/24 Q1008
11:00
V
32 °C 10 km+ - 150°   150° 10 kt METAR AYPY 220100Z 15010KT 9999 HZ SCT030 32/24 Q1009
10:00
V
31 °C 10 km+ - 350°   350° 5 kt METAR AYPY 220000Z 35005KT 9999 HZ SCT030 31/24 Q1009
09:00
V
30 °C 10 km+ - 350°   350° 5 kt METAR AYPY 212300Z 35005KT 9999 HZ FEW030 30/24 Q1010
08:00
V
28 °C 10 km+ - Var   Var 3 kt METAR AYPY 212200Z VRB03KT 9999 HZ FEW030 28/24 Q1009=
07:00
V
25 °C 10 km+ - Var   Var 3 kt METAR AYPY 212100Z VRB03KT 9999 HZ FEW040 25/24 Q1009
06:00
V
24 °C 10 km+ - Var   Var 2 kt METAR AYPY 212000Z VRB02KT 9999 FEW050 24/23 Q1008
05:00
V
24 °C 10 km+ - Var   Var 3 kt METAR AYPY 211900Z VRB03KT 9999 FEW050 24/23 Q1008
04:00
V
24 °C 10 km+ - Var   Var 3 kt METAR AYPY 211800Z VRB03KT 9999 SCT050 24/23 Q1008
03:00
V
24 °C 10 km+ - Var   Var 2 kt METAR AYPY 211700Z VRB02KT 9999 SCT050 24/24 Q1008
02:00
V
25 °C 10 km+ - Var   Var 2 kt METAR AYPY 211600Z VRB02KT 9999 SCT050 25/24 Q1008
01:00
V
25 °C 10 km+ - Var   Var 3 kt METAR AYPY 211500Z VRB03KT 9999 SCT050 25/24 Q1009
Oudere gegevens

Installeer onze app

Gemakkelijke toegang tot al het luchtvaartweer op je mobiele telefoon en tablet.
Met veel functies die niet op de website beschikbaar zijn, zoals offline ondersteuning en een persoonlijke lijst van vliegvelden.

Met cookies volgen wij en derde partijen jouw internetgedrag binnen onze site. Als je verdergaat gaan we ervan uit dat je dit goedvindt. Meer info